Time;durP1;ratioP1;P1;durP2;ratioP2;P2;SDS_P1;SDS_P2;PMS_P1;PMS_P2;Temp;Humidity;BMP_temperature;BMP_pressure;BME280_temperature;BME280_humidity;BME280_pressure;Samples;Min_cycle;Max_cycle;Signal;HPM_P1;HPM_P2
2022/09/26 00:01:53;;;;;;;;;2.25;1.00;;;;;14.44;56.56;101142.69;5057725;28;45286;-90
2022/09/26 00:04:23;;;;;;;;;2.00;1.00;;;;;14.43;56.56;101134.00;5039765;28;45409;-89
2022/09/26 00:06:49;;;;;;;;;2.25;1.00;;;;;14.42;56.73;101129.66;5039419;28;45565;-89
2022/09/26 00:09:15;;;;;;;;;3.00;1.75;;;;;14.41;56.74;101124.47;5039718;28;45513;-89
2022/09/26 00:11:42;;;;;;;;;2.25;1.00;;;;;14.39;57.08;101129.75;5057801;28;45491;-89
2022/09/26 00:14:13;;;;;;;;;0.50;0.50;;;;;14.36;56.97;101118.56;5057322;28;45312;-89
2022/09/26 00:16:38;;;;;;;;;2.00;1.00;;;;;14.33;57.25;101116.91;5056291;28;46383;-90
2022/09/26 00:19:04;;;;;;;;;1.00;1.00;;;;;14.32;57.43;101107.38;5039402;28;45535;-89
2022/09/26 00:21:30;;;;;;;;;2.00;0.75;;;;;14.28;57.03;101113.59;5039405;28;45330;-90
2022/09/26 00:23:56;;;;;;;;;1.00;1.00;;;;;14.24;57.31;101114.66;5057466;28;45281;-89
2022/09/26 00:26:23;;;;;;;;;1.50;0.25;;;;;14.23;57.88;101116.41;5057235;28;45466;-90
2022/09/26 00:28:49;;;;;;;;;1.00;1.00;;;;;14.21;57.49;101105.16;5057049;28;45782;-90
2022/09/26 00:31:20;;;;;;;;;1.75;1.75;;;;;14.20;57.77;101098.19;5039484;28;45408;-90
2022/09/26 00:33:48;;;;;;;;;0.00;0.00;;;;;14.18;57.81;101099.19;5051351;28;45568;-89
2022/09/26 00:36:14;;;;;;;;;1.00;1.00;;;;;14.18;57.71;101094.78;5059902;28;45304;-89
2022/09/26 00:38:40;;;;;;;;;1.00;1.00;;;;;14.17;57.75;101089.59;5059490;28;45358;-89
2022/09/26 00:41:08;;;;;;;;;0.75;0.75;;;;;14.16;57.49;101091.38;5076501;28;45360;-89
2022/09/26 00:43:47;;;;;;;;;0.00;0.00;;;;;14.20;57.93;101089.50;5077005;28;45357;-89
2022/09/26 00:46:36;;;;;;;;;2.25;1.00;;;;;14.23;57.54;101084.16;5077117;28;46245;-90
2022/09/26 00:49:10;;;;;;;;;0.75;0.75;;;;;14.24;57.30;101086.69;5059083;28;45771;-89
2022/09/26 00:51:37;;;;;;;;;1.00;0.00;;;;;14.23;57.92;101071.91;5077306;28;45407;-89
2022/09/26 00:54:04;;;;;;;;;0.25;0.25;;;;;14.22;57.78;101077.19;5042497;28;45464;-89
2022/09/26 00:56:33;;;;;;;;;1.00;1.00;;;;;14.18;57.82;101075.63;5043173;28;46668;-90
2022/09/26 00:59:07;;;;;;;;;0.50;0.50;;;;;14.18;57.68;101063.38;5038726;28;45274;-89
2022/09/26 01:01:33;;;;;;;;;1.75;1.00;;;;;14.19;57.80;101061.59;5038995;28;45365;-89
2022/09/26 01:04:00;;;;;;;;;2.50;1.00;;;;;14.19;57.93;101064.22;5055809;28;45467;-90
2022/09/26 01:06:26;;;;;;;;;1.00;1.00;;;;;14.18;57.41;101057.28;5056391;28;45425;-89
2022/09/26 01:09:07;;;;;;;;;1.00;1.00;;;;;14.18;57.69;101059.91;5038682;28;45369;-89
2022/09/26 01:11:37;;;;;;;;;2.00;1.00;;;;;14.23;57.84;101055.34;5054770;28;45358;-89
2022/09/26 01:14:04;;;;;;;;;1.00;1.00;;;;;14.23;57.37;101057.97;5038730;28;45512;-90
2022/09/26 01:16:30;;;;;;;;;1.25;1.00;;;;;14.18;57.94;101060.75;5055225;28;45523;-89
2022/09/26 01:18:56;;;;;;;;;2.00;1.00;;;;;14.18;58.22;101052.06;5055351;28;45581;-89
2022/09/26 01:22:00;;;;;;;;;2.00;1.00;;;;;14.16;57.81;101059.97;5038824;28;45424;-90
2022/09/26 01:24:51;;;;;;;;;1.00;1.00;;;;;14.08;57.50;101060.25;5038660;28;45372;-89
2022/09/26 01:27:35;;;;;;;;;3.00;0.00;;;;;14.03;57.78;101062.19;5038176;28;48172;-89
2022/09/26 01:30:11;;;;;;;;;0.50;0.00;;;;;14.02;57.89;101059.63;5056057;28;45653;-90
2022/09/26 01:33:13;;;;;;;;;1.75;1.75;;;;;14.05;58.12;101060.38;5057826;28;45400;-89
2022/09/26 01:35:58;;;;;;;;;3.50;1.00;;;;;14.04;57.68;101056.06;5058589;28;45395;-89
2022/09/26 01:38:47;;;;;;;;;1.75;1.00;;;;;14.03;57.55;101046.50;5058640;28;45705;-89
2022/09/26 01:41:20;;;;;;;;;1.50;1.00;;;;;14.03;57.67;101053.50;5076049;27;45389;-89
2022/09/26 01:43:51;;;;;;;;;4.00;1.00;;;;;14.05;57.77;101052.53;5059123;28;45356;-89
2022/09/26 01:46:32;;;;;;;;;3.00;1.00;;;;;14.07;57.30;101049.84;5076525;27;45470;-89
2022/09/26 01:49:06;;;;;;;;;1.75;0.50;;;;;14.07;57.57;101037.59;5058177;28;48326;-89
2022/09/26 01:51:36;;;;;;;;;1.00;1.00;;;;;14.07;57.66;101027.13;5058214;28;45326;-89
2022/09/26 01:54:18;;;;;;;;;3.00;1.00;;;;;14.06;57.63;101027.19;5041601;28;45257;-90
2022/09/26 01:56:45;;;;;;;;;0.25;0.25;;;;;14.06;57.95;101022.84;5042830;28;45592;-89
2022/09/26 01:59:19;;;;;;;;;0.00;0.00;;;;;14.07;57.89;101016.66;5038159;28;47323;-89
2022/09/26 02:01:45;;;;;;;;;0.50;0.50;;;;;14.06;57.37;101014.97;5037912;28;45563;-89
2022/09/26 02:04:20;;;;;;;;;2.00;0.25;;;;;14.03;57.60;101014.25;5038158;28;45388;-90
2022/09/26 02:07:08;;;;;;;;;1.00;1.00;;;;;13.98;57.98;101008.31;5018207;28;45403;-89
2022/09/26 02:09:39;;;;;;;;;1.00;1.00;;;;;13.92;57.78;100997.19;5017469;28;47984;-89
2022/09/26 02:12:07;;;;;;;;;1.00;0.50;;;;;13.93;57.83;100998.06;5018287;28;45765;-90
2022/09/26 02:14:34;;;;;;;;;1.00;1.00;;;;;13.93;58.32;100995.44;5018259;28;45339;-89
2022/09/26 02:17:21;;;;;;;;;1.00;1.00;;;;;13.90;58.07;100992.94;5018221;28;45469;-88
2022/09/26 02:19:55;;;;;;;;;1.00;1.00;;;;;13.85;58.09;100981.78;5017831;28;45526;-88
2022/09/26 02:22:24;;;;;;;;;1.00;1.00;;;;;13.84;58.15;100973.09;5019378;28;45484;-89
2022/09/26 02:24:50;;;;;;;;;0.00;0.00;;;;;13.88;58.60;100979.91;5017754;28;45818;-89
2022/09/26 02:27:15;;;;;;;;;1.50;1.00;;;;;13.86;57.74;100965.19;5001784;28;45605;-89
2022/09/26 02:29:42;;;;;;;;;1.00;1.00;;;;;13.91;58.22;100973.69;5001158;28;46331;-89
2022/09/26 02:32:15;;;;;;;;;1.25;1.25;;;;;13.88;57.82;100963.34;5001293;28;45874;-89
2022/09/26 02:34:41;;;;;;;;;1.00;1.00;;;;;13.82;57.82;100958.34;5040304;28;45296;-89
2022/09/26 02:37:12;;;;;;;;;0.00;0.00;;;;;13.76;58.34;100954.19;5041253;28;45478;-93
2022/09/26 02:39:39;;;;;;;;;0.00;0.00;;;;;13.72;58.42;100948.25;5040940;28;45320;-90
2022/09/26 02:42:20;;;;;;;;;0.00;0.00;;;;;13.72;58.56;100936.91;5041024;28;45709;-89
2022/09/26 02:44:56;;;;;;;;;0.00;0.00;;;;;13.71;58.17;100924.78;5058783;28;45376;-89
2022/09/26 02:47:43;;;;;;;;;2.00;0.50;;;;;13.71;59.13;100924.78;5058669;28;45547;-89
2022/09/26 02:50:37;;;;;;;;;1.00;0.00;;;;;13.69;58.85;100922.22;5058516;28;45657;-89
2022/09/26 02:53:28;;;;;;;;;2.00;1.00;;;;;13.67;58.96;100913.56;4999716;28;45314;-89
2022/09/26 02:56:09;;;;;;;;;1.00;1.00;;;;;13.68;58.85;100914.41;5009851;28;45366;-90
2022/09/26 02:58:53;;;;;;;;;2.00;0.00;;;;;13.66;58.92;100909.25;5013356;28;45552;-89
2022/09/26 03:01:30;;;;;;;;;0.50;0.50;;;;;13.65;59.31;100906.69;4996565;28;46527;-89
2022/09/26 03:04:05;;;;;;;;;1.75;1.00;;;;;13.62;59.32;100894.59;4980074;28;45571;-90
2022/09/26 03:06:36;;;;;;;;;0.50;0.50;;;;;13.60;59.52;100890.34;4996655;28;45471;-89
2022/09/26 03:09:06;;;;;;;;;0.00;0.00;;;;;13.57;59.67;100888.66;4979765;28;45420;-89
2022/09/26 03:11:32;;;;;;;;;0.00;0.00;;;;;13.57;59.83;100885.22;4996259;28;46388;-90
2022/09/26 03:13:58;;;;;;;;;1.00;0.75;;;;;13.55;59.14;100874.81;4980008;28;45777;-89
2022/09/26 03:16:27;;;;;;;;;2.00;1.00;;;;;13.59;59.16;100865.06;4980007;28;45295;-89
2022/09/26 03:18:55;;;;;;;;;2.00;0.75;;;;;13.65;59.57;100872.69;4979939;28;45498;-90
2022/09/26 03:21:21;;;;;;;;;0.25;0.25;;;;;13.68;59.29;100860.31;4996483;28;45362;-89
2022/09/26 03:23:47;;;;;;;;;2.00;1.00;;;;;13.73;59.25;100861.00;4979568;28;45361;-89
2022/09/26 03:26:16;;;;;;;;;1.00;1.00;;;;;13.81;59.25;100850.22;4979873;28;45831;-89
2022/09/26 03:28:42;;;;;;;;;1.25;0.25;;;;;13.79;59.02;100848.59;4996276;28;45384;-89
2022/09/26 03:31:07;;;;;;;;;1.00;1.00;;;;;13.74;58.87;100844.41;5019746;28;45385;-89
2022/09/26 03:33:33;;;;;;;;;1.00;0.75;;;;;13.74;59.05;100835.69;5029118;28;45461;-89
2022/09/26 03:35:59;;;;;;;;;0.00;0.00;;;;;13.77;59.13;100832.97;5040326;28;45450;-89
2022/09/26 03:38:27;;;;;;;;;1.00;0.50;;;;;13.70;58.62;100826.25;5023562;28;45358;-89
2022/09/26 03:40:53;;;;;;;;;1.00;1.00;;;;;13.65;58.75;100828.22;5057892;28;46185;-89
2022/09/26 03:43:18;;;;;;;;;0.00;0.00;;;;;13.64;58.80;100829.97;5058086;28;45232;-90
2022/09/26 03:45:43;;;;;;;;;0.00;0.00;;;;;13.65;59.22;100826.47;5040030;28;45299;-89
2022/09/26 03:48:09;;;;;;;;;0.00;0.00;;;;;13.65;58.72;100829.09;5040250;28;45374;-89
2022/09/26 03:50:34;;;;;;;;;2.75;0.00;;;;;13.65;58.80;100825.59;5058076;28;45419;-89
2022/09/26 03:53:00;;;;;;;;;1.00;1.00;;;;;13.62;58.99;100818.72;5057549;28;45383;-90
2022/09/26 03:55:28;;;;;;;;;1.00;1.00;;;;;13.63;59.11;100817.84;5040067;28;45318;-90
2022/09/26 03:57:55;;;;;;;;;0.00;0.00;;;;;13.62;58.86;100810.88;5024634;28;45425;-90
2022/09/26 04:00:20;;;;;;;;;0.00;0.00;;;;;13.63;58.89;100807.38;5003084;28;47007;-89
2022/09/26 04:02:45;;;;;;;;;0.00;0.00;;;;;13.57;58.46;100799.75;5003372;28;45795;-89
2022/09/26 04:05:11;;;;;;;;;0.00;0.00;;;;;13.59;58.96;100794.47;5025410;28;45348;-89
2022/09/26 04:07:43;;;;;;;;;0.00;0.00;;;;;13.59;58.38;100784.00;5057419;28;45387;-89
2022/09/26 04:10:10;;;;;;;;;0.25;0.25;;;;;13.57;58.82;100780.59;5044840;28;46534;-89
2022/09/26 04:12:36;;;;;;;;;0.50;0.50;;;;;13.54;58.68;100779.81;5060118;28;45244;-89
2022/09/26 04:15:02;;;;;;;;;1.00;1.00;;;;;13.52;58.78;100771.19;5076759;28;45400;-89
2022/09/26 04:17:28;;;;;;;;;0.00;0.00;;;;;13.49;58.47;100766.06;5042863;28;45698;-89
2022/09/26 04:19:53;;;;;;;;;3.00;1.00;;;;;13.46;58.85;100760.09;5077378;28;46393;-90
2022/09/26 04:22:19;;;;;;;;;1.00;0.00;;;;;13.45;58.74;100755.81;5059512;28;45640;-89
2022/09/26 04:24:44;;;;;;;;;1.00;0.00;;;;;13.43;58.76;100752.38;5076612;28;45592;-89
2022/09/26 04:27:09;;;;;;;;;2.00;0.00;;;;;13.45;59.12;100754.03;5056300;28;45517;-89
2022/09/26 04:29:35;;;;;;;;;1.00;0.50;;;;;13.45;58.91;100750.59;5057074;28;45330;-90
2022/09/26 04:32:00;;;;;;;;;1.00;0.00;;;;;13.45;59.33;100738.34;5039438;28;45486;-89
2022/09/26 04:34:26;;;;;;;;;2.75;0.00;;;;;13.42;58.98;100732.41;5074997;28;45358;-90
2022/09/26 04:36:51;;;;;;;;;2.00;0.00;;;;;13.40;58.39;100729.84;5076457;28;45657;-90
2022/09/26 04:39:17;;;;;;;;;2.00;0.00;;;;;13.34;58.82;100717.03;5076049;28;47182;-89
2022/09/26 04:41:42;;;;;;;;;1.00;0.00;;;;;13.30;59.08;100705.84;5077376;27;45383;-89
2022/09/26 04:44:09;;;;;;;;;0.25;0.25;;;;;13.30;58.91;100702.34;5076261;28;45402;-89
2022/09/26 04:46:34;;;;;;;;;0.25;0.25;;;;;13.32;58.70;100700.56;5077204;27;45339;-89
2022/09/26 04:49:00;;;;;;;;;0.00;0.00;;;;;13.35;58.53;100710.88;5058086;28;63921;-90
2022/09/26 04:51:27;;;;;;;;;0.00;0.00;;;;;13.39;58.65;100699.38;5076106;28;45348;-90
2022/09/26 04:53:52;;;;;;;;;1.00;1.00;;;;;13.42;58.32;100701.03;5076139;28;45508;-90
2022/09/26 04:56:24;;;;;;;;;0.00;0.00;;;;;13.43;58.28;100690.50;5076263;28;45387;-90
2022/09/26 04:58:50;;;;;;;;;0.50;0.00;;;;;13.42;57.87;100677.50;5061918;28;48039;-90
2022/09/26 05:01:19;;;;;;;;;1.25;0.00;;;;;13.44;57.68;100680.88;5058885;28;45446;-89
2022/09/26 05:03:45;;;;;;;;;0.00;0.00;;;;;13.44;57.56;100673.03;5076854;28;45407;-89
2022/09/26 05:06:12;;;;;;;;;2.00;0.75;;;;;13.43;57.99;100672.19;5076912;28;45392;-89
2022/09/26 05:08:40;;;;;;;;;0.00;0.00;;;;;13.42;57.80;100662.63;5076911;28;45528;-88
2022/09/26 05:11:06;;;;;;;;;1.00;0.50;;;;;13.43;57.50;100651.28;5077003;28;45344;-89
2022/09/26 05:13:32;;;;;;;;;0.00;0.00;;;;;13.43;57.35;100646.06;5059194;28;45567;-89
2022/09/26 05:16:01;;;;;;;;;0.00;0.00;;;;;13.42;57.66;100646.09;5058794;28;45297;-89
2022/09/26 05:18:27;;;;;;;;;0.00;0.00;;;;;13.40;57.35;100627.88;5076409;28;46132;-89
2022/09/26 05:20:53;;;;;;;;;0.00;0.00;;;;;13.39;57.24;100633.16;5075714;28;45495;-90
2022/09/26 05:26:22;;;;;;;;;0.25;0.25;;;;;13.41;57.05;100623.47;5075777;28;45471;-89
2022/09/26 05:28:50;;;;;;;;;0.00;0.00;;;;;13.42;57.31;100620.81;5060790;28;45518;-89
2022/09/26 05:31:16;;;;;;;;;0.00;0.00;;;;;13.41;57.58;100621.75;5058635;28;45616;-90
2022/09/26 05:33:45;;;;;;;;;0.00;0.00;;;;;13.44;57.32;100615.53;5076375;28;45284;-89
2022/09/26 05:36:11;;;;;;;;;1.00;0.00;;;;;13.47;57.36;100618.84;5075551;28;45490;-90
2022/09/26 05:38:36;;;;;;;;;3.00;0.00;;;;;13.50;57.50;100623.09;5076546;27;47336;-89
2022/09/26 05:41:02;;;;;;;;;0.00;0.00;;;;;13.51;57.36;100611.72;5058633;28;45377;-89
2022/09/26 05:43:29;;;;;;;;;2.00;0.25;;;;;13.53;57.82;100620.34;5075385;28;45284;-89
2022/09/26 05:45:57;;;;;;;;;1.50;0.50;;;;;13.49;57.63;100606.56;5075347;28;45394;-89
2022/09/26 05:48:26;;;;;;;;;0.50;0.50;;;;;13.48;57.17;100607.50;5076272;27;47154;-89
2022/09/26 05:50:52;;;;;;;;;1.00;0.00;;;;;13.53;57.72;100605.50;5075515;28;45803;-89
2022/09/26 05:53:20;;;;;;;;;1.00;0.50;;;;;13.58;57.14;100607.06;5075837;28;45490;-90
2022/09/26 05:55:49;;;;;;;;;2.25;1.00;;;;;13.59;57.12;100608.78;5075695;28;45288;-90
2022/09/26 05:58:17;;;;;;;;;1.00;1.00;;;;;13.58;57.14;100607.06;5077910;28;46990;-89
2022/09/26 06:00:43;;;;;;;;;1.00;1.00;;;;;13.56;57.39;100607.16;5080069;28;45497;-90
2022/09/26 06:03:11;;;;;;;;;1.00;1.00;;;;;13.50;57.49;100604.78;5061885;28;45482;-90
2022/09/26 06:05:36;;;;;;;;;1.00;0.00;;;;;13.47;57.54;100597.09;5047231;28;45763;-90
2022/09/26 06:08:02;;;;;;;;;0.00;0.00;;;;;13.42;57.45;100594.66;5045087;28;47829;-90
2022/09/26 06:10:29;;;;;;;;;1.00;1.00;;;;;13.41;57.87;100597.34;5078616;28;45789;-90
2022/09/26 06:12:56;;;;;;;;;1.00;1.00;;;;;13.39;57.49;100594.81;5061822;28;45926;-90
2022/09/26 06:15:23;;;;;;;;;0.50;0.25;;;;;13.36;57.73;100585.31;5062849;28;45561;-92
2022/09/26 06:17:57;;;;;;;;;0.75;0.25;;;;;13.35;58.25;100598.44;5062179;28;45368;-91
2022/09/26 06:20:24;;;;;;;;;1.00;0.00;;;;;13.35;58.10;100590.59;5080232;28;45707;-91
2022/09/26 06:22:49;;;;;;;;;1.00;1.00;;;;;13.35;58.01;100593.22;5062332;28;45409;-89
2022/09/26 06:25:15;;;;;;;;;0.00;0.00;;;;;13.36;58.24;100590.53;5061855;28;45340;-90
2022/09/26 06:27:41;;;;;;;;;0.00;0.00;;;;;13.39;58.41;100594.81;5070519;28;45359;-91
2022/09/26 06:30:09;;;;;;;;;1.50;0.25;;;;;13.43;58.11;100595.50;5041797;28;45334;-91
2022/09/26 06:32:35;;;;;;;;;1.00;1.00;;;;;13.42;58.22;100573.75;5043792;28;45496;-90
2022/09/26 06:35:01;;;;;;;;;0.75;0.75;;;;;13.44;57.96;100579.75;5061874;28;45404;-89
2022/09/26 06:37:27;;;;;;;;;0.00;0.00;;;;;13.45;58.32;100578.84;5060841;28;45436;-88
2022/09/26 06:39:52;;;;;;;;;1.00;1.00;;;;;13.46;58.08;100575.31;5061400;28;45428;-91
2022/09/26 06:42:17;;;;;;;;;0.00;0.00;;;;;13.47;58.23;100578.78;5061746;28;45652;-92
2022/09/26 06:44:43;;;;;;;;;2.00;0.50;;;;;13.48;58.51;100583.97;5061160;28;53288;-92
2022/09/26 06:47:11;;;;;;;;;1.75;1.00;;;;;13.50;58.44;100578.63;5060638;28;46601;-92
2022/09/26 06:49:37;;;;;;;;;0.00;0.00;;;;;13.55;58.51;100572.28;5094339;27;45761;-85
2022/09/26 06:52:02;;;;;;;;;0.00;0.00;;;;;13.63;58.32;100571.97;5078612;28;45221;-86
2022/09/26 06:54:28;;;;;;;;;0.00;0.00;;;;;13.70;57.95;100572.53;5078748;28;45311;-85
2022/09/26 06:56:53;;;;;;;;;1.00;1.00;;;;;13.77;58.23;100563.50;5078480;28;46576;-87
2022/09/26 06:59:19;;;;;;;;;0.00;0.00;;;;;13.81;57.72;100553.75;5077709;28;65481;-85
2022/09/26 07:01:46;;;;;;;;;1.00;1.00;;;;;13.83;57.44;100549.28;5078230;28;45458;-88
2022/09/26 07:04:14;;;;;;;;;0.75;0.75;;;;;13.86;57.30;100542.16;5060717;28;45372;-86
2022/09/26 07:06:40;;;;;;;;;2.00;1.00;;;;;13.88;58.13;100540.31;5078149;28;46337;-86
2022/09/26 07:09:06;;;;;;;;;1.00;1.00;;;;;13.90;57.05;100533.25;5078049;28;45677;-85
2022/09/26 07:11:31;;;;;;;;;2.75;0.25;;;;;13.94;57.61;100526.09;5059360;28;62098;-85
2022/09/26 07:13:59;;;;;;;;;1.25;1.00;;;;;13.97;57.04;100520.72;5075685;28;64091;-87
2022/09/26 07:16:25;;;;;;;;;3.25;1.00;;;;;13.99;57.13;100516.28;5078128;28;46357;-86
2022/09/26 07:18:51;;;;;;;;;0.00;0.00;;;;;14.00;56.60;100504.88;5060121;28;46294;-85
2022/09/26 07:21:16;;;;;;;;;0.00;0.00;;;;;14.00;57.39;100494.41;5078017;28;50166;-86
2022/09/26 07:23:41;;;;;;;;;0.00;0.00;;;;;14.01;57.00;100500.50;5078293;28;45439;-85
2022/09/26 07:26:07;;;;;;;;;1.25;0.00;;;;;14.03;57.28;100491.66;5077959;28;45466;-86
2022/09/26 07:28:32;;;;;;;;;0.00;0.00;;;;;14.07;57.11;100481.88;5055557;28;57508;-87
2022/09/26 07:31:00;;;;;;;;;1.25;1.00;;;;;14.09;56.97;100485.28;5057800;28;45541;-86
2022/09/26 07:33:25;;;;;;;;;0.50;0.25;;;;;14.12;56.96;100475.50;5058559;27;45497;-87
2022/09/26 07:35:51;;;;;;;;;1.50;1.00;;;;;14.17;56.73;100471.81;5098249;27;56297;-89
2022/09/26 07:38:16;;;;;;;;;1.00;1.00;;;;;14.20;56.55;100469.06;5098515;27;45419;-87
2022/09/26 07:40:42;;;;;;;;;1.75;0.00;;;;;14.23;56.68;100468.94;5097835;27;64108;-90
2022/09/26 07:43:07;;;;;;;;;1.50;1.00;;;;;14.27;56.62;100468.69;5044265;28;45590;-89
2022/09/26 07:51:00;;;;;;;;;3.00;0.00;;;;;14.28;56.77;100459.94;5078432;28;45310;-90
2022/09/26 07:53:26;;;;;;;;;2.00;0.50;;;;;14.31;56.43;100459.75;5056797;28;54134;-89
2022/09/26 07:56:04;;;;;;;;;1.25;1.00;;;;;14.35;56.62;100455.22;5078262;28;46628;-90
2022/09/26 07:58:34;;;;;;;;;3.00;1.00;;;;;14.39;56.42;100453.28;5061599;28;45470;-89
2022/09/26 08:01:00;;;;;;;;;4.50;1.00;;;;;14.46;56.44;100458.16;5078012;28;45363;-91
2022/09/26 08:03:27;;;;;;;;;2.75;1.00;;;;;14.52;55.95;100449.13;5078042;28;45392;-89
2022/09/26 08:05:54;;;;;;;;;0.00;0.00;;;;;14.53;56.11;100450.84;5078115;28;46167;-88
2022/09/26 08:08:20;;;;;;;;;1.25;1.00;;;;;14.57;55.67;100452.41;5077047;28;45472;-89
2022/09/26 08:10:45;;;;;;;;;0.75;0.75;;;;;14.62;55.72;100439.09;5056274;28;64232;-90
2022/09/26 08:13:11;;;;;;;;;0.25;0.25;;;;;14.73;55.07;100442.03;5039131;28;45476;-90
2022/09/26 08:15:36;;;;;;;;;0.00;0.00;;;;;14.85;54.66;100438.75;5057151;28;46386;-89
2022/09/26 08:18:02;;;;;;;;;0.00;0.00;;;;;15.00;54.56;100431.03;5040794;28;45262;-91
2022/09/26 08:20:28;;;;;;;;;2.50;1.00;;;;;15.12;53.92;100430.41;5058819;28;45439;-90
2022/09/26 08:22:54;;;;;;;;;1.00;0.00;;;;;15.15;53.85;100421.53;5056624;28;57961;-89
2022/09/26 08:25:19;;;;;;;;;3.00;0.25;;;;;15.16;53.22;100413.56;5056654;28;46937;-92
2022/09/26 08:27:46;;;;;;;;;0.00;0.00;;;;;15.18;54.07;100403.84;5039870;28;53718;-89
2022/09/26 08:30:11;;;;;;;;;1.00;1.00;;;;;15.24;53.53;100400.06;5039784;28;45394;-89
2022/09/26 08:32:37;;;;;;;;;0.00;0.00;;;;;15.31;53.20;100398.81;5062141;27;45499;-91
2022/09/26 08:35:03;;;;;;;;;0.25;0.25;;;;;15.34;52.92;100406.50;5083747;27;45567;-92
2022/09/26 08:37:29;;;;;;;;;1.00;1.00;;;;;15.35;53.13;100400.31;5083531;27;45696;-91
2022/09/26 08:39:59;;;;;;;;;1.00;1.00;;;;;15.45;52.88;100398.91;5080722;27;45656;-91
2022/09/26 08:42:37;;;;;;;;;0.50;0.25;;;;;15.60;52.51;100391.97;5081279;27;45457;-91
2022/09/26 08:48:33;;;;;;;;;0.75;0.75;;;;;15.82;51.80;100375.03;5098538;27;45514;-89
2022/09/26 08:51:10;;;;;;;;;1.75;1.00;;;;;15.85;51.60;100374.88;5080315;27;45460;-89
2022/09/26 08:53:52;;;;;;;;;2.00;0.00;;;;;15.86;51.22;100366.03;5080245;27;45582;-90
2022/09/26 08:56:24;;;;;;;;;0.50;0.50;;;;;15.93;51.40;100369.19;5079145;27;46212;-89
2022/09/26 08:58:51;;;;;;;;;2.00;0.75;;;;;15.96;50.19;100369.84;5079617;27;45372;-89
2022/09/26 09:01:30;;;;;;;;;1.75;0.00;;;;;15.96;50.10;100358.53;5091399;27;45317;-89
2022/09/26 09:04:41;;;;;;;;;0.75;0.75;;;;;16.03;51.19;100354.59;5076898;28;45502;-95
2022/09/26 09:07:20;;;;;;;;;0.75;0.00;;;;;16.19;50.76;100349.28;5080178;28;47582;-90
2022/09/26 09:09:45;;;;;;;;;3.50;1.25;;;;;16.28;50.29;100348.75;5078508;28;45570;-91
2022/09/26 09:12:20;;;;;;;;;2.75;0.00;;;;;16.32;50.67;100339.75;5076439;28;45332;-92
2022/09/26 09:14:56;;;;;;;;;2.00;0.00;;;;;16.35;50.17;100333.50;5043213;28;45382;-92
2022/09/26 09:17:36;;;;;;;;;0.25;0.25;;;;;16.28;49.29;100335.63;5077530;28;45626;-92
2022/09/26 09:20:05;;;;;;;;;1.00;1.00;;;;;16.19;49.46;100328.28;5077327;28;45282;-91
2022/09/26 09:22:46;;;;;;;;;3.00;1.00;;;;;16.12;50.27;100322.56;5076388;28;45377;-91
2022/09/26 09:25:28;;;;;;;;;0.25;0.25;;;;;16.15;49.81;100317.13;5077707;28;45371;-91
2022/09/26 09:28:01;;;;;;;;;1.00;1.00;;;;;16.29;49.52;100312.81;5076150;28;48060;-91
2022/09/26 09:30:44;;;;;;;;;0.75;0.75;;;;;16.33;49.20;100309.94;5059313;28;46167;-91
2022/09/26 09:33:21;;;;;;;;;0.00;0.00;;;;;16.35;48.86;100297.56;5077692;28;45343;-91
2022/09/26 09:35:52;;;;;;;;;1.50;0.00;;;;;16.33;49.75;100288.94;5076165;28;45403;-91
2022/09/26 09:38:27;;;;;;;;;0.00;0.00;;;;;16.38;49.51;100283.38;5076261;28;46548;-90
2022/09/26 09:41:06;;;;;;;;;0.00;0.00;;;;;16.43;49.35;100270.81;5076143;28;45452;-92
2022/09/26 09:44:16;;;;;;;;;0.75;0.75;;;;;16.39;48.75;100291.19;5076577;28;45314;-91
2022/09/26 09:46:41;;;;;;;;;1.00;1.00;;;;;16.34;48.51;100285.34;4995070;28;45504;-93
2022/09/26 09:49:07;;;;;;;;;2.00;0.00;;;;;16.32;48.74;100274.09;4978283;28;56034;-91
2022/09/26 09:52:13;;;;;;;;;1.00;1.00;;;;;16.28;48.80;100267.34;4978850;28;45520;-90
2022/09/26 09:55:02;;;;;;;;;2.00;1.00;;;;;16.29;48.86;100260.31;4978394;28;45392;-92
2022/09/26 09:57:49;;;;;;;;;0.00;0.00;;;;;16.28;49.20;100243.72;4995141;28;45562;-92
2022/09/26 10:00:19;;;;;;;;;1.00;1.00;;;;;16.32;48.91;100257.50;4977919;28;47033;-93
2022/09/26 10:02:58;;;;;;;;;0.25;0.25;;;;;16.29;49.13;100236.66;4968421;28;45815;-91
2022/09/26 10:05:44;;;;;;;;;1.50;1.00;;;;;16.21;49.74;100239.75;4975334;28;45358;-91
2022/09/26 10:08:18;;;;;;;;;0.00;0.00;;;;;16.21;49.50;100231.88;4975137;28;45710;-90
2022/09/26 10:11:22;;;;;;;;;1.50;1.00;;;;;16.34;49.88;100234.63;4975070;28;47038;-91
2022/09/26 10:14:00;;;;;;;;;1.00;1.00;;;;;16.37;50.29;100227.38;4975391;28;45990;-90
2022/09/26 10:16:25;;;;;;;;;2.00;0.00;;;;;16.23;50.00;100188.84;4977747;28;45401;-90
2022/09/26 10:18:54;;;;;;;;;2.00;1.75;;;;;16.11;50.76;100181.72;4975139;28;45296;-90
2022/09/26 10:21:20;;;;;;;;;3.00;1.00;;;;;16.10;50.54;100194.94;5044535;28;47589;-91
2022/09/26 10:23:49;;;;;;;;;1.00;1.00;;;;;16.09;50.44;100199.34;5057948;28;45742;-90
2022/09/26 10:26:23;;;;;;;;;2.00;0.00;;;;;16.13;50.49;100189.50;5058618;28;45448;-91
2022/09/26 10:28:55;;;;;;;;;1.00;0.50;;;;;16.19;51.03;100189.97;5058261;28;45481;-87
2022/09/26 10:31:23;;;;;;;;;0.00;0.00;;;;;16.24;50.91;100195.78;5054456;28;46435;-92
2022/09/26 10:33:58;;;;;;;;;1.00;1.00;;;;;16.19;51.98;100189.97;5071573;27;45344;-88
2022/09/26 10:36:33;;;;;;;;;0.25;0.25;;;;;16.05;53.99;100179.47;5054853;28;45230;-91
2022/09/26 10:41:46;;;;;;;;;1.00;1.00;;;;;15.66;55.34;100179.09;5075839;28;45761;-89
2022/09/26 10:44:26;;;;;;;;;1.00;0.75;;;;;15.40;58.08;100190.28;5076482;28;45343;-94
2022/09/26 10:46:58;;;;;;;;;2.00;2.00;;;;;15.15;58.83;100162.81;5079278;28;45384;-95
2022/09/26 10:49:38;;;;;;;;;0.00;0.00;;;;;14.97;61.18;100150.75;5061749;28;45619;-91
2022/09/26 10:52:18;;;;;;;;;1.50;0.75;;;;;14.86;61.80;100173.19;5042989;28;48391;-87
2022/09/26 10:54:54;;;;;;;;;1.00;0.25;;;;;14.74;61.17;100144.22;5041367;28;46045;-89
2022/09/26 10:57:30;;;;;;;;;3.00;1.00;;;;;14.65;62.68;100146.41;5068327;28;45364;-90
2022/09/26 10:59:57;;;;;;;;;1.25;1.25;;;;;14.57;63.40;100138.13;5068992;28;44771;-89
2022/09/26 11:02:24;;;;;;;;;1.75;1.75;;;;;14.46;63.38;100136.06;5060696;28;46390;-91
2022/09/26 11:07:41;;;;;;;;;0.00;0.00;;;;;14.33;64.34;100133.25;5062228;28;45654;-90
2022/09/26 11:10:13;;;;;;;;;1.00;0.75;;;;;14.33;64.64;100140.28;5061267;28;45541;-89
2022/09/26 11:12:55;;;;;;;;;1.00;1.00;;;;;14.26;66.11;100124.06;5081932;28;45432;-89
2022/09/26 11:15:21;;;;;;;;;4.00;1.00;;;;;14.23;66.55;100126.00;5076786;28;45643;-87
2022/09/26 11:17:54;;;;;;;;;0.00;0.00;;;;;14.23;66.04;100124.22;5060194;28;45365;-85
2022/09/26 11:20:28;;;;;;;;;1.00;1.00;;;;;14.20;66.42;100126.16;5073201;28;45497;-86
2022/09/26 11:23:10;;;;;;;;;0.75;0.75;;;;;14.17;67.88;100115.84;5073447;28;46645;-86
2022/09/26 11:26:07;;;;;;;;;2.00;1.00;;;;;14.08;68.46;100115.44;5060113;28;45373;-87
2022/09/26 11:28:48;;;;;;;;;2.00;0.75;;;;;13.99;68.78;100104.59;4997900;28;45382;-86
2022/09/26 11:31:26;;;;;;;;;2.75;1.00;;;;;13.89;68.13;100089.41;4997195;28;45474;-91
2022/09/26 11:33:52;;;;;;;;;1.25;1.00;;;;;13.88;69.50;100087.69;5011552;28;45529;-88
2022/09/26 11:37:01;;;;;;;;;1.00;1.00;;;;;13.85;69.61;100090.47;5026969;28;45966;-90
2022/09/26 11:39:49;;;;;;;;;1.00;1.00;;;;;13.77;71.54;100073.50;4935284;28;45315;-89
2022/09/26 11:42:53;;;;;;;;;2.25;1.00;;;;;13.66;71.48;100081.91;4956360;28;45327;-85
2022/09/26 11:45:57;;;;;;;;;2.75;2.00;;;;;13.52;72.71;100073.00;4954442;28;46435;-84
2022/09/26 11:48:46;;;;;;;;;1.25;1.00;;;;;13.38;74.47;100064.19;4892721;29;45792;-89
2022/09/26 11:51:33;;;;;;;;;0.00;0.00;;;;;13.21;75.57;100054.56;4881284;29;45578;-87
2022/09/26 11:54:31;;;;;;;;;0.00;0.00;;;;;13.09;75.93;100045.56;4891956;28;46489;-88
2022/09/26 11:57:20;;;;;;;;;0.00;0.00;;;;;13.04;76.61;100051.03;4894168;29;45507;-84
2022/09/26 11:59:55;;;;;;;;;0.00;0.00;;;;;12.96;76.72;100055.78;4879447;29;45748;-85
2022/09/26 12:02:43;;;;;;;;;0.00;0.00;;;;;12.86;75.99;100039.72;4879631;29;45441;-84